Time;durP1;ratioP1;P1;durP2;ratioP2;P2;SDS_P1;SDS_P2;PMS_P1;PMS_P2;Temp;Humidity;BMP_temperature;BMP_pressure;BME280_temperature;BME280_humidity;BME280_pressure;Samples;Min_cycle;Max_cycle;Signal;HPM_P1;HPM_P2
2021/05/08 00:01:08;;;;;;;15.23;8.52;;;4.50;80.30;;;;;;5073325;28;20482;-79
2021/05/08 00:03:34;;;;;;;16.55;9.13;;;4.30;81.20;;;;;;5091533;28;20374;-78
2021/05/08 00:06:02;;;;;;;18.55;10.20;;;4.30;81.20;;;;;;5091546;28;20374;-78
2021/05/08 00:08:27;;;;;;;20.40;11.23;;;4.40;80.50;;;;;;5090774;28;20385;-78
2021/05/08 00:10:53;;;;;;;18.10;10.00;;;4.40;81.00;;;;;;5091216;28;20944;-78
2021/05/08 00:13:20;;;;;;;18.35;9.60;;;4.50;80.30;;;;;;5091284;28;20397;-79
2021/05/08 00:15:45;;;;;;;17.35;9.45;;;4.50;80.60;;;;;;5072554;28;20390;-78
2021/05/08 00:18:11;;;;;;;17.55;9.70;;;4.40;81.20;;;;;;5072506;28;20386;-79
2021/05/08 00:20:37;;;;;;;16.30;9.13;;;4.30;81.00;;;;;;5090735;28;20370;-79
2021/05/08 00:23:02;;;;;;;16.60;9.30;;;4.50;80.10;;;;;;5091076;28;20386;-78
2021/05/08 00:25:28;;;;;;;15.27;9.13;;;4.30;80.90;;;;;;5090808;28;20834;-77
2021/05/08 00:27:53;;;;;;;16.23;9.97;;;4.00;82.30;;;;;;5090361;28;20385;-78
2021/05/08 00:30:19;;;;;;;13.47;8.63;;;3.90;83.10;;;;;;5090678;28;20709;-78
2021/05/08 00:32:44;;;;;;;15.23;8.50;;;3.90;82.90;;;;;;5090720;28;20440;-78
2021/05/08 00:35:10;;;;;;;17.10;9.13;;;4.10;82.10;;;;;;5090312;28;20842;-78
2021/05/08 00:37:36;;;;;;;14.73;8.70;;;4.30;80.80;;;;;;5090298;28;20905;-78
2021/05/08 00:40:03;;;;;;;15.33;8.97;;;4.10;81.80;;;;;;5072488;28;20385;-79
2021/05/08 00:42:28;;;;;;;16.23;8.70;;;4.00;82.70;;;;;;5090269;28;20412;-78
2021/05/08 00:44:54;;;;;;;14.60;8.77;;;3.90;83.00;;;;;;5090573;28;20382;-79
2021/05/08 00:47:20;;;;;;;14.10;9.17;;;4.10;82.20;;;;;;5089779;28;20902;-79
2021/05/08 00:49:46;;;;;;;15.10;8.52;;;4.10;81.90;;;;;;5090792;28;20366;-78
2021/05/08 00:52:13;;;;;;;14.52;9.48;;;4.00;82.50;;;;;;5090373;28;20834;-78
2021/05/08 00:54:40;;;;;;;16.75;9.98;;;3.80;83.30;;;;;;5090668;28;20402;-78
2021/05/08 00:57:05;;;;;;;13.07;8.40;;;3.80;83.30;;;;;;5089866;28;20382;-79
2021/05/08 00:59:31;;;;;;;18.30;8.95;;;3.90;83.40;;;;;;5089326;28;20374;-78
2021/05/08 01:01:56;;;;;;;15.53;8.53;;;3.80;83.90;;;;;;5090239;28;20447;-78
2021/05/08 01:04:22;;;;;;;15.93;9.03;;;3.90;82.80;;;;;;5090144;28;20479;-78
2021/05/08 01:06:48;;;;;;;15.37;8.73;;;4.10;81.80;;;;;;5089922;28;20385;-78
2021/05/08 01:09:14;;;;;;;13.00;8.30;;;4.00;82.00;;;;;;5089962;28;20465;-78
2021/05/08 01:11:40;;;;;;;14.75;8.93;;;3.90;82.30;;;;;;5072255;28;20409;-78
2021/05/08 01:14:06;;;;;;;13.38;8.30;;;3.90;82.50;;;;;;5089872;28;20889;-78
2021/05/08 01:16:32;;;;;;;13.82;8.50;;;3.90;82.30;;;;;;5090210;28;20775;-78
2021/05/08 01:18:59;;;;;;;14.52;8.73;;;4.00;81.70;;;;;;5090161;28;20513;-78
2021/05/08 01:21:24;;;;;;;17.17;9.13;;;4.10;81.20;;;;;;5090468;28;20477;-78
2021/05/08 01:23:51;;;;;;;15.70;8.73;;;4.00;81.60;;;;;;5072018;28;20838;-78
2021/05/08 01:26:18;;;;;;;17.33;9.23;;;4.00;82.30;;;;;;5089934;28;20873;-77
2021/05/08 01:28:44;;;;;;;14.43;8.83;;;3.90;82.90;;;;;;5071517;28;20464;-78
2021/05/08 01:31:10;;;;;;;15.45;9.07;;;4.00;82.50;;;;;;5090404;28;20859;-78
2021/05/08 01:33:35;;;;;;;16.08;9.60;;;4.10;82.00;;;;;;5089966;28;20440;-78
2021/05/08 01:36:01;;;;;;;17.77;9.73;;;4.10;82.50;;;;;;5071962;28;20838;-78
2021/05/08 01:38:27;;;;;;;15.03;9.47;;;4.00;83.20;;;;;;5071289;28;20755;-78
2021/05/08 01:41:01;;;;;;;17.53;9.37;;;4.20;82.30;;;;;;5089773;28;20374;-79
2021/05/08 01:43:27;;;;;;;14.27;9.05;;;4.20;83.00;;;;;;5090581;28;20393;-78
2021/05/08 01:45:53;;;;;;;15.82;9.05;;;4.10;82.90;;;;;;5089745;28;20453;-78
2021/05/08 01:48:18;;;;;;;15.27;9.43;;;3.90;84.10;;;;;;5071759;28;20474;-78
2021/05/08 01:50:44;;;;;;;14.77;9.07;;;3.90;83.80;;;;;;5089547;28;20390;-78
2021/05/08 01:53:10;;;;;;;13.77;8.88;;;4.10;82.80;;;;;;5090202;28;20780;-78
2021/05/08 01:55:35;;;;;;;15.63;9.32;;;4.00;83.50;;;;;;5089870;28;20366;-78
2021/05/08 01:58:01;;;;;;;12.13;8.55;;;4.10;83.80;;;;;;5089267;28;20410;-78
2021/05/08 02:00:32;;;;;;;19.83;9.00;;;4.20;84.00;;;;;;5089730;28;20381;-78
2021/05/08 02:02:58;;;;;;;14.68;8.98;;;4.20;83.40;;;;;;5089832;28;20473;-78
2021/05/08 02:05:28;;;;;;;13.70;8.75;;;4.20;83.60;;;;;;5071606;28;20374;-78
2021/05/08 02:07:54;;;;;;;14.13;8.05;;;4.20;84.30;;;;;;5089450;28;20397;-78
2021/05/08 02:10:20;;;;;;;14.13;8.33;;;4.30;83.80;;;;;;5089890;28;20386;-77
2021/05/08 02:12:46;;;;;;;19.60;9.32;;;4.10;83.90;;;;;;5092618;28;20395;-78
2021/05/08 02:15:14;;;;;;;12.98;9.02;;;4.00;84.90;;;;;;5093651;28;20413;-78
2021/05/08 02:17:41;;;;;;;14.03;8.20;;;4.10;84.70;;;;;;5092670;28;20374;-78
2021/05/08 02:20:12;;;;;;;12.57;8.00;;;4.30;83.50;;;;;;5074988;28;20382;-78
2021/05/08 02:22:38;;;;;;;14.43;8.48;;;4.30;83.10;;;;;;5074729;28;20398;-78
2021/05/08 02:25:06;;;;;;;18.13;8.47;;;4.20;83.60;;;;;;5075220;28;20375;-78
2021/05/08 02:27:32;;;;;;;13.35;7.88;;;4.10;83.50;;;;;;5074374;28;20374;-78
2021/05/08 02:29:58;;;;;;;13.23;8.10;;;4.10;83.20;;;;;;5074984;28;20390;-78
2021/05/08 02:32:23;;;;;;;14.93;8.87;;;4.20;82.80;;;;;;5073518;28;20382;-77
2021/05/08 02:34:49;;;;;;;12.17;7.90;;;4.10;82.60;;;;;;5074209;28;20417;-78
2021/05/08 02:37:15;;;;;;;13.53;8.10;;;3.90;83.90;;;;;;5074595;28;20942;-78
2021/05/08 02:39:40;;;;;;;13.37;8.33;;;3.80;84.80;;;;;;5092953;28;20477;-77
2021/05/08 02:42:06;;;;;;;12.60;8.27;;;3.90;84.10;;;;;;5074886;28;20377;-78
2021/05/08 02:44:32;;;;;;;15.30;8.43;;;3.90;83.70;;;;;;5092533;28;20378;-79
2021/05/08 02:46:57;;;;;;;17.13;8.80;;;3.90;83.50;;;;;;5074283;28;20461;-78
2021/05/08 02:49:23;;;;;;;13.50;8.30;;;3.90;83.20;;;;;;5092134;28;20412;-78
2021/05/08 02:51:48;;;;;;;14.47;9.57;;;3.70;83.20;;;;;;5093170;28;20409;-78
2021/05/08 02:54:16;;;;;;;16.07;8.67;;;3.70;83.20;;;;;;5092448;28;20398;-78
2021/05/08 02:56:42;;;;;;;16.30;8.57;;;3.70;84.10;;;;;;5092115;28;20830;-78
2021/05/08 02:59:26;;;;;;;14.20;8.32;;;3.70;84.10;;;;;;5092866;28;20453;-78
2021/05/08 03:01:52;;;;;;;14.45;8.38;;;3.80;83.70;;;;;;5073085;28;20386;-78
2021/05/08 03:04:17;;;;;;;14.47;8.17;;;3.80;83.30;;;;;;5074735;28;20379;-78
2021/05/08 03:06:43;;;;;;;11.93;8.10;;;3.90;82.80;;;;;;5073721;28;20692;-78
2021/05/08 03:09:08;;;;;;;15.47;9.27;;;3.80;83.20;;;;;;5074257;28;20386;-78
2021/05/08 03:11:34;;;;;;;13.90;8.20;;;3.80;83.00;;;;;;5091568;28;20866;-78
2021/05/08 03:13:59;;;;;;;17.73;8.48;;;3.60;83.80;;;;;;5073770;28;20429;-78
2021/05/08 03:16:26;;;;;;;15.93;8.52;;;3.50;84.30;;;;;;5073541;28;20473;-77
2021/05/08 03:18:51;;;;;;;13.52;8.98;;;3.50;84.20;;;;;;5073629;28;20382;-78
2021/05/08 03:21:17;;;;;;;16.87;9.40;;;3.30;84.70;;;;;;5074308;28;20796;-77
2021/05/08 03:23:43;;;;;;;15.13;9.50;;;3.40;84.30;;;;;;5091070;28;20374;-78
2021/05/08 03:26:08;;;;;;;16.40;8.80;;;3.30;85.00;;;;;;5074169;28;20390;-78
2021/05/08 03:28:34;;;;;;;16.33;8.97;;;3.40;84.50;;;;;;5073170;28;20389;-78
2021/05/08 03:31:02;;;;;;;17.30;9.40;;;3.40;84.30;;;;;;5073398;28;20386;-78
2021/05/08 03:33:27;;;;;;;16.40;9.70;;;3.40;84.50;;;;;;5090971;28;20458;-77
2021/05/08 03:35:53;;;;;;;15.63;10.07;;;3.40;84.70;;;;;;5091791;28;20473;-79
2021/05/08 03:38:18;;;;;;;16.57;11.00;;;3.40;84.40;;;;;;5091552;28;20457;-77
2021/05/08 03:40:44;;;;;;;26.97;12.93;;;3.30;85.60;;;;;;5091971;28;20382;-80
2021/05/08 03:43:09;;;;;;;21.40;12.93;;;3.00;87.40;;;;;;5091767;28;20416;-77
2021/05/08 03:45:35;;;;;;;19.47;11.97;;;3.10;87.10;;;;;;5073568;28;20403;-78
2021/05/08 03:48:00;;;;;;;23.50;12.65;;;3.20;86.90;;;;;;5090998;28;20374;-77
2021/05/08 03:50:26;;;;;;;21.85;12.60;;;3.30;86.60;;;;;;5091657;28;20698;-77
2021/05/08 03:52:51;;;;;;;17.30;10.93;;;3.40;86.00;;;;;;5091413;28;20860;-79
2021/05/08 03:55:19;;;;;;;20.42;11.40;;;3.40;85.90;;;;;;5073191;28;20409;-77
2021/05/08 03:57:44;;;;;;;23.02;12.35;;;3.50;85.40;;;;;;5073145;28;20432;-77
2021/05/08 04:00:10;;;;;;;21.33;11.17;;;3.50;85.90;;;;;;5091428;28;20378;-77
2021/05/08 04:02:36;;;;;;;18.23;11.10;;;3.50;85.70;;;;;;5091552;28;20382;-77
2021/05/08 04:05:02;;;;;;;16.73;11.13;;;3.60;85.50;;;;;;5090734;28;20719;-77
2021/05/08 04:07:27;;;;;;;19.25;11.15;;;3.70;85.00;;;;;;5091196;28;20378;-79
2021/05/08 04:09:53;;;;;;;22.23;11.73;;;3.70;84.90;;;;;;5090155;28;20366;-78
2021/05/08 04:12:18;;;;;;;17.77;11.05;;;3.70;85.30;;;;;;5091005;28;20479;-78
2021/05/08 04:14:44;;;;;;;18.70;12.20;;;3.70;85.50;;;;;;5090804;28;20446;-78
2021/05/08 04:17:09;;;;;;;20.77;11.88;;;3.70;85.30;;;;;;5090486;28;20374;-78
2021/05/08 04:19:35;;;;;;;25.40;12.10;;;3.60;85.30;;;;;;5072807;28;20374;-77
2021/05/08 04:22:00;;;;;;;20.87;12.90;;;3.50;85.90;;;;;;5091013;28;20369;-78
2021/05/08 04:24:26;;;;;;;19.70;12.20;;;3.30;87.00;;;;;;5072980;28;20440;-78
2021/05/08 04:26:51;;;;;;;18.70;11.47;;;3.40;86.30;;;;;;5090277;28;20846;-79
2021/05/08 04:29:19;;;;;;;22.80;11.40;;;3.50;85.80;;;;;;5073043;28;20886;-78
2021/05/08 04:31:45;;;;;;;20.98;11.75;;;3.70;84.70;;;;;;5090603;28;20415;-78
2021/05/08 04:34:10;;;;;;;22.00;12.00;;;3.90;83.50;;;;;;5072671;28;20489;-79
2021/05/08 04:36:36;;;;;;;20.97;12.00;;;4.10;82.20;;;;;;5090387;28;20378;-79
2021/05/08 04:39:02;;;;;;;18.98;11.70;;;4.10;82.30;;;;;;5090798;28;20377;-78
2021/05/08 04:41:27;;;;;;;18.63;11.57;;;4.10;83.50;;;;;;5090472;28;20393;-78
2021/05/08 04:43:53;;;;;;;19.13;11.80;;;4.10;83.40;;;;;;5090656;28;20544;-78
2021/05/08 04:46:18;;;;;;;17.13;10.33;;;4.20;82.90;;;;;;5090909;28;20702;-78
2021/05/08 04:48:44;;;;;;;18.87;10.93;;;4.30;82.40;;;;;;5071866;28;20385;-78
2021/05/08 04:51:10;;;;;;;16.10;10.37;;;4.30;82.10;;;;;;5090474;28;20457;-79
2021/05/08 04:53:35;;;;;;;20.57;10.90;;;4.40;80.90;;;;;;5090286;28;20396;-78
2021/05/08 04:56:01;;;;;;;17.43;10.20;;;4.40;81.40;;;;;;5090828;28;20380;-79
2021/05/08 04:58:26;;;;;;;15.63;9.87;;;4.40;81.60;;;;;;5089785;28;20385;-78
2021/05/08 05:00:52;;;;;;;18.03;10.63;;;4.40;81.70;;;;;;5090603;28;20401;-79
2021/05/08 05:03:18;;;;;;;16.25;9.50;;;4.50;81.40;;;;;;5090092;28;20385;-79
2021/05/08 05:05:43;;;;;;;17.77;10.07;;;4.40;81.10;;;;;;5090571;28;20544;-78
2021/05/08 05:08:09;;;;;;;19.83;10.57;;;4.40;80.70;;;;;;5089872;28;20874;-78
2021/05/08 05:10:34;;;;;;;14.25;9.57;;;4.40;80.80;;;;;;5090566;28;20375;-78
2021/05/08 05:13:00;;;;;;;15.60;9.63;;;4.50;80.30;;;;;;5089800;28;20393;-79
2021/05/08 05:15:27;;;;;;;14.93;9.27;;;4.50;79.30;;;;;;5090261;28;20486;-79
2021/05/08 05:17:54;;;;;;;15.20;9.32;;;4.70;78.90;;;;;;5071767;28;20414;-79
2021/05/08 05:20:20;;;;;;;16.70;9.73;;;4.80;78.50;;;;;;5090187;28;20378;-78
2021/05/08 05:22:46;;;;;;;14.73;9.52;;;4.80;77.20;;;;;;5090414;28;20388;-78
2021/05/08 05:25:12;;;;;;;15.90;9.03;;;4.90;78.40;;;;;;5089394;28;20374;-78
2021/05/08 05:27:37;;;;;;;14.80;9.77;;;4.90;77.80;;;;;;5089835;28;20374;-79
2021/05/08 05:30:04;;;;;;;14.73;9.80;;;4.90;77.80;;;;;;5089430;28;20498;-78
2021/05/08 05:32:29;;;;;;;17.27;10.38;;;5.00;77.00;;;;;;5089889;28;20866;-78
2021/05/08 05:34:55;;;;;;;16.25;9.85;;;5.30;76.30;;;;;;5089683;28;20471;-79
2021/05/08 05:37:20;;;;;;;18.67;10.05;;;5.30;76.60;;;;;;5089393;28;20386;-79
2021/05/08 05:39:46;;;;;;;17.27;9.38;;;5.40;76.00;;;;;;5089430;28;20384;-79
2021/05/08 05:42:11;;;;;;;16.67;9.10;;;5.60;74.50;;;;;;5090330;28;20710;-77
2021/05/08 05:44:37;;;;;;;17.43;10.07;;;5.80;73.20;;;;;;5089658;28;20378;-79
2021/05/08 05:47:04;;;;;;;14.70;9.20;;;5.80;73.10;;;;;;5092052;28;20435;-78
2021/05/08 05:49:29;;;;;;;15.77;9.53;;;6.00;71.60;;;;;;5094228;28;20396;-80
2021/05/08 05:51:55;;;;;;;16.03;9.47;;;6.00;73.20;;;;;;5093806;28;20390;-79
2021/05/08 05:54:20;;;;;;;13.93;8.70;;;6.20;71.70;;;;;;5093904;28;20400;-77
2021/05/08 05:56:46;;;;;;;15.67;9.00;;;6.30;71.30;;;;;;5093458;28;20418;-77
2021/05/08 05:59:12;;;;;;;14.43;9.20;;;6.30;72.30;;;;;;5094017;28;20811;-78
2021/05/08 06:01:37;;;;;;;14.63;9.37;;;6.30;72.50;;;;;;5075518;28;20819;-78
2021/05/08 06:04:05;;;;;;;14.40;8.60;;;6.30;71.60;;;;;;5094139;28;20376;-78
2021/05/08 06:06:32;;;;;;;17.48;8.93;;;6.40;70.80;;;;;;5093208;28;20413;-78
2021/05/08 06:08:58;;;;;;;14.77;8.68;;;6.50;71.00;;;;;;5093997;28;20435;-78
2021/05/08 06:11:23;;;;;;;13.63;8.25;;;6.70;69.70;;;;;;5093410;28;20757;-78
2021/05/08 06:13:49;;;;;;;12.63;7.97;;;6.70;70.60;;;;;;5092974;28;20441;-78
2021/05/08 06:16:14;;;;;;;14.70;7.63;;;6.80;70.00;;;;;;5075202;28;20386;-78
2021/05/08 06:18:40;;;;;;;15.07;7.73;;;7.00;68.20;;;;;;5093165;28;20853;-78
2021/05/08 06:21:06;;;;;;;12.87;7.60;;;7.10;67.40;;;;;;5075129;28;20474;-79
2021/05/08 06:23:31;;;;;;;11.68;6.65;;;7.10;70.00;;;;;;5093025;28;20745;-78
2021/05/08 06:25:57;;;;;;;11.93;7.38;;;7.40;66.40;;;;;;5093370;28;20366;-78
2021/05/08 06:28:22;;;;;;;9.77;5.60;;;7.40;67.10;;;;;;5092732;28;20455;-80
2021/05/08 06:30:48;;;;;;;10.10;5.40;;;7.80;61.60;;;;;;5093337;28;20392;-78
2021/05/08 06:33:13;;;;;;;10.00;5.60;;;8.00;62.10;;;;;;5092386;28;20406;-78
2021/05/08 06:35:39;;;;;;;8.20;5.50;;;8.10;61.80;;;;;;5093183;28;20373;-78
2021/05/08 06:38:05;;;;;;;11.23;5.47;;;8.10;63.60;;;;;;5092027;28;20378;-78
2021/05/08 06:40:32;;;;;;;8.18;4.82;;;8.40;60.90;;;;;;5074962;28;20386;-79
2021/05/08 06:42:57;;;;;;;11.15;5.07;;;8.60;58.70;;;;;;5092312;28;20381;-78
2021/05/08 06:45:23;;;;;;;6.93;4.40;;;8.60;60.20;;;;;;5092676;28;20378;-79
2021/05/08 06:47:51;;;;;;;9.03;4.97;;;8.90;58.40;;;;;;5074180;28;20882;-78
2021/05/08 06:50:16;;;;;;;7.80;4.30;;;8.90;59.00;;;;;;5092699;28;20374;-79
2021/05/08 06:52:42;;;;;;;6.73;4.30;;;8.90;60.70;;;;;;5092533;28;20765;-81
2021/05/08 06:55:08;;;;;;;7.20;4.40;;;9.10;59.40;;;;;;5092628;28;20481;-79
2021/05/08 06:57:33;;;;;;;14.07;5.57;;;9.40;55.60;;;;;;5092275;28;20374;-79
2021/05/08 07:00:00;;;;;;;8.07;4.10;;;9.50;55.10;;;;;;5092457;28;20370;-78
2021/05/08 07:02:26;;;;;;;10.00;4.30;;;9.50;55.90;;;;;;5074543;28;20443;-79
2021/05/08 07:04:51;;;;;;;7.30;4.03;;;9.60;55.30;;;;;;5092478;28;20767;-78
2021/05/08 07:07:17;;;;;;;10.52;3.90;;;9.60;55.20;;;;;;5092046;28;20463;-78
2021/05/08 07:09:42;;;;;;;7.43;4.17;;;9.70;55.80;;;;;;5091739;28;20818;-79
2021/05/08 07:12:08;;;;;;;6.93;3.40;;;9.80;55.80;;;;;;5091284;28;20416;-78
2021/05/08 07:14:34;;;;;;;6.77;3.53;;;9.90;52.70;;;;;;5091108;28;20846;-78
2021/05/08 07:16:59;;;;;;;7.87;3.77;;;10.10;55.10;;;;;;5091587;28;20386;-78
2021/05/08 07:19:25;;;;;;;5.93;3.63;;;10.10;55.90;;;;;;5091145;28;20385;-79
2021/05/08 07:21:50;;;;;;;8.15;3.83;;;10.20;53.80;;;;;;5073653;28;20414;-77
2021/05/08 07:24:16;;;;;;;6.18;3.60;;;10.40;53.10;;;;;;5092322;28;20408;-78
2021/05/08 07:26:41;;;;;;;9.27;4.20;;;10.40;53.60;;;;;;5090965;28;20431;-79
2021/05/08 07:29:07;;;;;;;7.77;3.73;;;10.40;54.20;;;;;;5092084;28;20374;-80
2021/05/08 07:31:32;;;;;;;6.37;3.90;;;10.60;52.50;;;;;;5091459;28;20366;-78
2021/05/08 07:33:58;;;;;;;5.55;3.55;;;10.60;53.20;;;;;;5073885;28;20409;-80
2021/05/08 07:36:23;;;;;;;6.70;3.60;;;10.80;53.90;;;;;;5091687;28;20436;-78
2021/05/08 07:38:49;;;;;;;7.63;3.70;;;10.70;50.30;;;;;;5073621;28;20427;-80
2021/05/08 07:41:15;;;;;;;12.17;3.33;;;10.80;53.30;;;;;;5091835;28;20393;-78
2021/05/08 07:43:40;;;;;;;7.07;3.45;;;10.80;52.80;;;;;;5091860;28;20382;-79
2021/05/08 07:46:06;;;;;;;8.93;3.20;;;10.90;53.10;;;;;;5091825;28;20378;-80
2021/05/08 07:48:31;;;;;;;4.47;2.97;;;11.00;47.00;;;;;;5072850;28;20382;-79
2021/05/08 07:50:57;;;;;;;7.60;3.67;;;11.00;47.70;;;;;;5073495;28;20410;-78
2021/05/08 07:53:23;;;;;;;7.60;3.13;;;11.00;48.00;;;;;;5091222;28;20470;-80
2021/05/08 07:55:48;;;;;;;5.30;2.80;;;11.00;49.60;;;;;;5073510;28;20421;-79
2021/05/08 07:58:14;;;;;;;6.07;3.15;;;11.10;49.00;;;;;;5090991;28;20407;-80
2021/05/08 08:00:40;;;;;;;7.07;3.17;;;11.20;48.90;;;;;;5091686;28;20396;-80
2021/05/08 08:03:05;;;;;;;6.03;3.30;;;11.20;51.30;;;;;;5091617;28;20378;-78
2021/05/08 08:05:31;;;;;;;9.02;3.42;;;11.40;46.30;;;;;;5091273;28;20379;-79
2021/05/08 08:07:57;;;;;;;6.85;3.10;;;11.30;46.50;;;;;;5090783;28;20389;-80
2021/05/08 08:10:23;;;;;;;5.40;2.78;;;11.40;48.80;;;;;;5090806;28;20374;-79
2021/05/08 08:12:49;;;;;;;7.18;2.90;;;11.40;49.50;;;;;;5090956;28;20396;-79
2021/05/08 08:15:16;;;;;;;4.82;2.90;;;11.50;50.00;;;;;;5091254;28;20386;-80
2021/05/08 08:17:42;;;;;;;7.28;3.25;;;11.50;49.10;;;;;;5090625;28;20374;-80
2021/05/08 08:20:13;;;;;;;9.80;2.93;;;11.60;47.70;;;;;;5091139;28;20397;-80
2021/05/08 08:22:40;;;;;;;6.30;2.80;;;11.60;46.90;;;;;;5091089;28;20848;-79
2021/05/08 08:25:08;;;;;;;5.68;3.00;;;11.70;48.50;;;;;;5090952;28;20376;-81
2021/05/08 08:27:34;;;;;;;4.60;2.70;;;11.80;46.50;;;;;;5090388;28;20412;-80
2021/05/08 08:30:00;;;;;;;6.33;2.70;;;11.90;46.50;;;;;;5090813;28;20398;-81
2021/05/08 08:32:43;;;;;;;7.25;2.90;;;12.00;47.30;;;;;;5091049;28;20416;-80
2021/05/08 08:35:09;;;;;;;6.90;3.30;;;12.30;47.80;;;;;;5070785;28;20405;-80
2021/05/08 08:37:35;;;;;;;5.82;2.80;;;12.30;48.30;;;;;;5090380;28;20428;-80
2021/05/08 08:40:00;;;;;;;5.70;2.83;;;12.40;44.60;;;;;;5072282;28;20859;-79
2021/05/08 08:42:27;;;;;;;5.50;2.83;;;12.20;46.50;;;;;;5090546;28;20378;-80
2021/05/08 08:44:52;;;;;;;6.50;2.83;;;12.20;46.40;;;;;;5090583;28;20370;-80
2021/05/08 08:47:31;;;;;;;9.07;2.80;;;12.10;45.40;;;;;;5090072;28;20761;-78
2021/05/08 08:50:06;;;;;;;8.33;2.60;;;12.10;46.40;;;;;;5090523;28;20374;-79
2021/05/08 08:52:32;;;;;;;7.95;2.47;;;12.20;47.60;;;;;;5072225;28;20390;-80
2021/05/08 08:54:59;;;;;;;5.32;2.60;;;12.40;48.50;;;;;;5072240;28;20871;-80
2021/05/08 08:57:34;;;;;;;5.45;2.60;;;12.50;46.50;;;;;;5072037;28;20711;-80
2021/05/08 09:00:03;;;;;;;4.18;2.22;;;12.60;47.70;;;;;;5086463;28;20392;-80
2021/05/08 09:02:28;;;;;;;10.25;2.70;;;12.60;45.70;;;;;;5051838;28;20380;-79
2021/05/08 09:04:57;;;;;;;4.75;2.70;;;12.60;46.90;;;;;;5070131;28;20399;-80
2021/05/08 09:07:26;;;;;;;4.93;2.70;;;12.60;46.00;;;;;;5051740;28;20415;-80
2021/05/08 09:09:52;;;;;;;11.47;4.27;;;12.50;45.10;;;;;;5051943;28;20933;-80
2021/05/08 09:12:18;;;;;;;6.20;2.80;;;12.50;47.10;;;;;;5052496;28;20402;-80
2021/05/08 09:14:49;;;;;;;6.30;2.70;;;12.60;46.70;;;;;;5052022;28;21057;-80
2021/05/08 09:17:33;;;;;;;5.95;2.83;;;12.70;44.20;;;;;;5085437;28;20379;-80
2021/05/08 09:20:03;;;;;;;5.60;2.47;;;12.60;44.60;;;;;;5070183;28;20383;-80
2021/05/08 09:22:33;;;;;;;9.27;2.70;;;12.70;45.10;;;;;;5073714;28;20379;-79
2021/05/08 09:25:11;;;;;;;9.98;2.40;;;12.90;47.80;;;;;;5056273;28;20392;-80
2021/05/08 09:27:56;;;;;;;6.05;2.30;;;13.00;46.90;;;;;;5055761;28;20736;-78
2021/05/08 09:30:29;;;;;;;7.70;2.58;;;13.00;44.90;;;;;;5074263;28;20376;-79
2021/05/08 09:32:54;;;;;;;11.55;2.83;;;13.10;45.70;;;;;;5056077;28;20723;-79
2021/05/08 09:35:28;;;;;;;7.40;2.60;;;13.30;46.90;;;;;;5056193;28;20475;-85
2021/05/08 09:38:15;;;;;;;20.15;3.13;;;13.30;46.20;;;;;;5073590;28;20690;-80
2021/05/08 09:40:46;;;;;;;11.52;3.05;;;13.30;44.00;;;;;;5074161;28;20418;-81
2021/05/08 09:43:21;;;;;;;7.18;2.58;;;13.50;45.00;;;;;;5074638;28;20864;-82
2021/05/08 09:45:52;;;;;;;6.18;2.25;;;13.50;44.30;;;;;;5073760;28;20414;-83
2021/05/08 09:48:20;;;;;;;12.60;2.97;;;13.50;43.90;;;;;;5073800;28;20406;-83
2021/05/08 09:50:45;;;;;;;5.43;2.25;;;13.60;44.30;;;;;;5055718;28;20391;-84
2021/05/08 09:53:11;;;;;;;6.20;2.30;;;13.80;42.60;;;;;;5073937;28;20725;-80
2021/05/08 09:55:37;;;;;;;6.55;2.72;;;13.50;41.90;;;;;;5073465;28;20387;-83
2021/05/08 09:58:07;;;;;;;4.60;2.03;;;13.90;42.90;;;;;;5055236;28;20417;-77
2021/05/08 10:00:42;;;;;;;3.38;2.17;;;14.50;43.10;;;;;;5073189;28;20415;-79
2021/05/08 10:03:12;;;;;;;5.95;2.55;;;14.90;43.60;;;;;;5075072;28;20864;-77
2021/05/08 10:05:42;;;;;;;6.63;2.22;;;14.60;43.30;;;;;;5092989;28;20740;-82
2021/05/08 10:08:09;;;;;;;26.48;3.75;;;14.30;42.70;;;;;;5074403;28;20378;-80
2021/05/08 10:10:36;;;;;;;7.75;2.40;;;14.60;42.30;;;;;;5100627;28;20386;-81
2021/05/08 10:13:10;;;;;;;4.60;2.50;;;14.80;42.90;;;;;;5089392;28;20435;-79
2021/05/08 10:15:38;;;;;;;20.35;2.80;;;14.70;39.70;;;;;;5089872;28;20394;-79
2021/05/08 10:18:07;;;;;;;9.02;2.38;;;15.10;42.30;;;;;;5072015;28;20827;-79
2021/05/08 10:20:34;;;;;;;4.90;2.20;;;15.00;40.70;;;;;;5072996;28;20526;-75
2021/05/08 10:23:06;;;;;;;12.02;3.00;;;14.60;39.10;;;;;;5091630;28;20408;-74
2021/05/08 10:25:32;;;;;;;6.47;2.63;;;14.40;41.90;;;;;;5091996;28;20374;-76
2021/05/08 10:27:57;;;;;;;6.25;2.50;;;14.70;40.60;;;;;;5091309;28;20696;-73
2021/05/08 10:30:29;;;;;;;4.25;2.50;;;15.00;39.50;;;;;;5091915;28;20443;-75
2021/05/08 10:32:56;;;;;;;8.27;2.90;;;14.90;38.40;;;;;;5073144;28;20394;-75
2021/05/08 10:35:35;;;;;;;7.28;2.60;;;14.90;42.00;;;;;;5091637;28;20392;-74
2021/05/08 10:38:30;;;;;;;4.23;2.40;;;15.00;40.20;;;;;;5091519;28;20477;-74
2021/05/08 10:41:10;;;;;;;5.53;2.70;;;14.90;38.30;;;;;;5091855;28;20378;-75
2021/05/08 10:43:53;;;;;;;6.25;3.00;;;14.90;38.00;;;;;;5091779;28;20967;-75
2021/05/08 10:46:24;;;;;;;7.20;3.20;;;15.10;37.70;;;;;;5092112;28;20370;-78
2021/05/08 10:49:12;;;;;;;9.40;3.65;;;14.90;40.00;;;;;;5090993;28;20393;-74
2021/05/08 10:51:53;;;;;;;7.70;3.03;;;14.70;39.70;;;;;;5073787;28;20393;-74
2021/05/08 10:54:37;;;;;;;6.43;2.63;;;14.90;40.10;;;;;;5091073;28;20922;-74
2021/05/08 10:57:23;;;;;;;7.67;2.70;;;14.90;40.70;;;;;;5091508;28;20389;-79
2021/05/08 11:00:04;;;;;;;11.02;3.60;;;15.00;40.80;;;;;;5091980;28;20893;-77
2021/05/08 11:02:42;;;;;;;7.15;2.55;;;14.90;39.60;;;;;;5073406;28;20855;-76
2021/05/08 11:05:33;;;;;;;5.25;2.60;;;14.90;38.60;;;;;;5091688;28;20439;-76
2021/05/08 11:07:59;;;;;;;4.43;2.43;;;14.90;37.20;;;;;;5091401;28;20724;-78
2021/05/08 11:10:34;;;;;;;8.63;2.88;;;14.80;40.40;;;;;;5091640;28;20362;-76
2021/05/08 11:13:17;;;;;;;4.13;2.50;;;14.80;38.10;;;;;;5091693;28;20812;-76
2021/05/08 11:15:55;;;;;;;6.47;2.67;;;15.30;40.00;;;;;;5030382;28;1225076;-75
2021/05/08 11:18:50;;;;;;;9.65;2.30;;;15.30;38.10;;;;;;5092254;28;20378;-80
2021/05/08 11:21:17;;;;;;;5.03;2.85;;;14.90;38.30;;;;;;5090663;28;20393;-76
2021/05/08 11:23:47;;;;;;;6.75;2.40;;;14.90;37.70;;;;;;5108510;28;20393;-77
2021/05/08 11:26:36;;;;;;;5.47;2.40;;;14.90;37.50;;;;;;5108202;28;20481;-82
2021/05/08 11:29:13;;;;;;;7.13;2.20;;;14.90;39.20;;;;;;5081515;28;20485;-84
2021/05/08 11:31:43;;;;;;;4.65;1.75;;;15.00;39.40;;;;;;5092629;28;20724;-80
2021/05/08 11:34:12;;;;;;;2.80;1.65;;;14.90;37.90;;;;;;5092079;28;20401;-81
2021/05/08 11:36:46;;;;;;;3.67;1.90;;;14.90;37.00;;;;;;5091785;28;20857;-80
2021/05/08 11:39:17;;;;;;;4.73;1.97;;;15.20;37.20;;;;;;5091934;28;20455;-85
2021/05/08 11:41:44;;;;;;;5.63;1.85;;;14.90;38.00;;;;;;5092052;28;20410;-80
2021/05/08 11:44:25;;;;;;;5.30;2.20;;;15.20;37.20;;;;;;5090753;28;20385;-82
2021/05/08 11:46:58;;;;;;;3.90;1.95;;;15.40;36.90;;;;;;5091209;28;20827;-79
2021/05/08 11:49:34;;;;;;;5.03;2.50;;;15.60;37.70;;;;;;5073791;28;20374;-86
2021/05/08 11:52:03;;;;;;;4.25;2.00;;;15.60;37.00;;;;;;5091459;28;20445;-85
2021/05/08 11:54:31;;;;;;;8.63;1.88;;;15.60;38.50;;;;;;5091758;28;20429;-85
2021/05/08 11:56:57;;;;;;;4.90;1.77;;;15.40;38.80;;;;;;5072656;28;21049;-85
2021/05/08 11:59:34;;;;;;;4.13;1.77;;;15.30;38.10;;;;;;5091724;28;20434;-84
2021/05/08 12:02:12;;;;;;;3.13;1.73;;;15.20;38.60;;;;;;5072806;28;20378;-82
2021/05/08 12:04:50;;;;;;;3.97;1.75;;;15.10;37.90;;;;;;5091356;28;20394;-82
2021/05/08 12:07:20;;;;;;;5.18;1.80;;;15.00;38.80;;;;;;5071700;28;20382;-82
2021/05/08 12:09:45;;;;;;;5.68;1.90;;;15.10;38.20;;;;;;5089708;28;20367;-82
2021/05/08 12:12:12;;;;;;;3.00;1.73;;;15.10;40.00;;;;;;5089735;28;20381;-80
2021/05/08 12:14:42;;;;;;;5.22;2.92;;;15.20;39.20;;;;;;5088117;28;20542;-81
2021/05/08 12:17:08;;;;;;;4.75;1.90;;;15.10;40.30;;;;;;5071482;28;20381;-81
2021/05/08 12:19:36;;;;;;;7.25;1.90;;;15.00;40.00;;;;;;5090236;28;20386;-82
2021/05/08 12:22:01;;;;;;;4.50;1.87;;;15.10;39.60;;;;;;5072026;28;20377;-82
2021/05/08 12:24:27;;;;;;;3.73;2.00;;;15.00;38.50;;;;;;5105495;28;21035;-81
2021/05/08 12:26:53;;;;;;;8.05;1.88;;;14.90;38.50;;;;;;5090002;28;20366;-91
2021/05/08 12:29:19;;;;;;;5.20;2.03;;;15.10;39.30;;;;;;5091053;28;20381;-86
2021/05/08 12:31:46;;;;;;;3.63;1.73;;;15.00;39.10;;;;;;5071532;28;20862;-79
2021/05/08 12:34:16;;;;;;;4.00;1.70;;;14.90;40.20;;;;;;5090165;28;20393;-78
2021/05/08 12:37:04;;;;;;;3.45;1.75;;;14.80;39.80;;;;;;5105422;28;20448;-88
2021/05/08 12:39:30;;;;;;;3.00;1.30;;;14.80;41.60;;;;;;5089995;28;20377;-82
2021/05/08 12:42:01;;;;;;;8.38;1.67;;;14.90;41.50;;;;;;5071871;28;20382;-80
2021/05/08 12:44:32;;;;;;;2.45;1.55;;;14.60;43.00;;;;;;5090187;28;20389;-81
2021/05/08 12:47:16;;;;;;;4.20;1.50;;;14.40;44.80;;;;;;5089347;28;20382;-88
2021/05/08 12:50:01;;;;;;;4.87;1.60;;;14.30;43.90;;;;;;5090041;28;20386;-88